sensor_id;sensor_type;location;lat;lon;timestamp;temperature;humidity
85036;DHT22;75357;49.780;9.448;2024-03-07T00:01:48;6.50;67.20
85036;DHT22;75357;49.780;9.448;2024-03-07T00:04:17;6.40;67.80
85036;DHT22;75357;49.780;9.448;2024-03-07T00:06:45;6.30;67.80
85036;DHT22;75357;49.780;9.448;2024-03-07T00:09:16;6.20;68.00
85036;DHT22;75357;49.780;9.448;2024-03-07T00:11:45;6.20;68.20
85036;DHT22;75357;49.780;9.448;2024-03-07T00:14:14;6.10;68.70
85036;DHT22;75357;49.780;9.448;2024-03-07T00:16:42;5.90;69.00
85036;DHT22;75357;49.780;9.448;2024-03-07T00:19:11;5.80;69.40
85036;DHT22;75357;49.780;9.448;2024-03-07T00:21:42;5.80;69.60
85036;DHT22;75357;49.780;9.448;2024-03-07T00:24:11;5.70;69.90
85036;DHT22;75357;49.780;9.448;2024-03-07T00:26:42;5.70;69.90
85036;DHT22;75357;49.780;9.448;2024-03-07T00:29:11;5.60;70.70
85036;DHT22;75357;49.780;9.448;2024-03-07T00:31:39;5.50;70.80
85036;DHT22;75357;49.780;9.448;2024-03-07T00:34:07;5.50;71.20
85036;DHT22;75357;49.780;9.448;2024-03-07T00:36:45;5.40;71.70
85036;DHT22;75357;49.780;9.448;2024-03-07T00:39:14;5.30;72.20
85036;DHT22;75357;49.780;9.448;2024-03-07T00:41:44;5.20;73.10
85036;DHT22;75357;49.780;9.448;2024-03-07T00:44:13;5.10;73.60
85036;DHT22;75357;49.780;9.448;2024-03-07T00:46:42;4.90;74.70
85036;DHT22;75357;49.780;9.448;2024-03-07T00:49:10;4.90;74.80
85036;DHT22;75357;49.780;9.448;2024-03-07T00:51:38;4.90;75.00
85036;DHT22;75357;49.780;9.448;2024-03-07T00:54:07;4.80;75.30
85036;DHT22;75357;49.780;9.448;2024-03-07T00:56:36;4.80;75.30
85036;DHT22;75357;49.780;9.448;2024-03-07T00:59:05;4.80;76.30
85036;DHT22;75357;49.780;9.448;2024-03-07T01:01:34;4.80;76.30
85036;DHT22;75357;49.780;9.448;2024-03-07T01:04:03;4.70;76.30
85036;DHT22;75357;49.780;9.448;2024-03-07T01:06:32;4.70;76.30
85036;DHT22;75357;49.780;9.448;2024-03-07T01:09:00;4.50;76.50
85036;DHT22;75357;49.780;9.448;2024-03-07T01:11:29;4.50;77.00
85036;DHT22;75357;49.780;9.448;2024-03-07T01:13:58;4.40;77.10
85036;DHT22;75357;49.780;9.448;2024-03-07T01:16:27;4.40;77.60
85036;DHT22;75357;49.780;9.448;2024-03-07T01:18:56;4.40;77.60
85036;DHT22;75357;49.780;9.448;2024-03-07T01:21:25;4.40;78.00
85036;DHT22;75357;49.780;9.448;2024-03-07T01:23:55;4.40;78.60
85036;DHT22;75357;49.780;9.448;2024-03-07T01:26:24;4.30;77.90
85036;DHT22;75357;49.780;9.448;2024-03-07T01:28:52;4.20;78.10
85036;DHT22;75357;49.780;9.448;2024-03-07T01:31:22;4.10;78.60
85036;DHT22;75357;49.780;9.448;2024-03-07T01:33:52;4.10;79.10
85036;DHT22;75357;49.780;9.448;2024-03-07T01:36:20;4.10;79.30
85036;DHT22;75357;49.780;9.448;2024-03-07T01:38:49;4.10;79.40
85036;DHT22;75357;49.780;9.448;2024-03-07T01:41:18;4.10;79.50
85036;DHT22;75357;49.780;9.448;2024-03-07T01:43:47;4.00;79.60
85036;DHT22;75357;49.780;9.448;2024-03-07T01:46:15;4.10;79.80
85036;DHT22;75357;49.780;9.448;2024-03-07T01:48:44;4.10;79.40
85036;DHT22;75357;49.780;9.448;2024-03-07T01:51:15;4.10;79.20
85036;DHT22;75357;49.780;9.448;2024-03-07T01:53:43;4.00;79.20
85036;DHT22;75357;49.780;9.448;2024-03-07T01:56:13;3.90;79.60
85036;DHT22;75357;49.780;9.448;2024-03-07T01:58:42;3.80;79.90
85036;DHT22;75357;49.780;9.448;2024-03-07T02:01:11;3.80;80.40
85036;DHT22;75357;49.780;9.448;2024-03-07T02:03:41;3.70;80.50
85036;DHT22;75357;49.780;9.448;2024-03-07T02:06:10;3.70;80.70
85036;DHT22;75357;49.780;9.448;2024-03-07T02:08:41;3.70;80.70
85036;DHT22;75357;49.780;9.448;2024-03-07T02:11:09;3.70;81.10
85036;DHT22;75357;49.780;9.448;2024-03-07T02:13:38;3.70;81.10
85036;DHT22;75357;49.780;9.448;2024-03-07T02:16:06;3.60;81.10
85036;DHT22;75357;49.780;9.448;2024-03-07T02:18:35;3.40;81.60
85036;DHT22;75357;49.780;9.448;2024-03-07T02:21:08;3.40;82.00
85036;DHT22;75357;49.780;9.448;2024-03-07T02:23:39;3.40;82.10
85036;DHT22;75357;49.780;9.448;2024-03-07T02:26:08;3.40;82.20
85036;DHT22;75357;49.780;9.448;2024-03-07T02:28:37;3.40;82.00
85036;DHT22;75357;49.780;9.448;2024-03-07T02:31:06;3.40;82.30
85036;DHT22;75357;49.780;9.448;2024-03-07T02:33:34;3.30;82.60
85036;DHT22;75357;49.780;9.448;2024-03-07T02:36:03;3.40;82.10
85036;DHT22;75357;49.780;9.448;2024-03-07T02:38:33;3.50;81.80
85036;DHT22;75357;49.780;9.448;2024-03-07T02:41:03;3.40;82.00
85036;DHT22;75357;49.780;9.448;2024-03-07T02:43:31;3.40;82.10
85036;DHT22;75357;49.780;9.448;2024-03-07T02:45:59;3.30;81.80
85036;DHT22;75357;49.780;9.448;2024-03-07T02:48:28;3.30;82.00
85036;DHT22;75357;49.780;9.448;2024-03-07T02:50:57;3.30;82.10
85036;DHT22;75357;49.780;9.448;2024-03-07T02:53:26;3.20;82.00
85036;DHT22;75357;49.780;9.448;2024-03-07T02:55:56;3.20;82.30
85036;DHT22;75357;49.780;9.448;2024-03-07T02:58:25;3.10;82.30
85036;DHT22;75357;49.780;9.448;2024-03-07T03:00:59;3.10;82.50
85036;DHT22;75357;49.780;9.448;2024-03-07T03:03:28;3.00;82.50
85036;DHT22;75357;49.780;9.448;2024-03-07T03:05:58;3.10;82.30
85036;DHT22;75357;49.780;9.448;2024-03-07T03:08:28;3.00;82.50
85036;DHT22;75357;49.780;9.448;2024-03-07T03:10:58;2.90;82.80
85036;DHT22;75357;49.780;9.448;2024-03-07T03:13:27;2.80;83.00
85036;DHT22;75357;49.780;9.448;2024-03-07T03:15:56;2.80;83.10
85036;DHT22;75357;49.780;9.448;2024-03-07T03:18:25;2.70;83.20
85036;DHT22;75357;49.780;9.448;2024-03-07T03:20:53;2.70;83.10
85036;DHT22;75357;49.780;9.448;2024-03-07T03:23:21;2.80;83.10
85036;DHT22;75357;49.780;9.448;2024-03-07T03:25:50;2.90;82.90
85036;DHT22;75357;49.780;9.448;2024-03-07T03:28:20;2.80;83.00
85036;DHT22;75357;49.780;9.448;2024-03-07T03:30:49;2.90;83.30
85036;DHT22;75357;49.780;9.448;2024-03-07T03:33:18;2.90;83.90
85036;DHT22;75357;49.780;9.448;2024-03-07T03:35:48;2.90;83.20
85036;DHT22;75357;49.780;9.448;2024-03-07T03:38:16;2.80;83.30
85036;DHT22;75357;49.780;9.448;2024-03-07T03:40:47;2.70;83.50
85036;DHT22;75357;49.780;9.448;2024-03-07T03:43:15;2.70;83.50
85036;DHT22;75357;49.780;9.448;2024-03-07T03:45:46;2.70;83.90
85036;DHT22;75357;49.780;9.448;2024-03-07T03:48:15;2.70;84.00
85036;DHT22;75357;49.780;9.448;2024-03-07T03:50:44;2.60;84.70
85036;DHT22;75357;49.780;9.448;2024-03-07T03:53:14;2.50;85.00
85036;DHT22;75357;49.780;9.448;2024-03-07T03:55:42;2.50;85.40
85036;DHT22;75357;49.780;9.448;2024-03-07T03:58:11;2.50;85.60
85036;DHT22;75357;49.780;9.448;2024-03-07T04:00:40;2.60;85.60
85036;DHT22;75357;49.780;9.448;2024-03-07T04:03:10;2.60;85.70
85036;DHT22;75357;49.780;9.448;2024-03-07T04:05:38;2.60;85.60
85036;DHT22;75357;49.780;9.448;2024-03-07T04:08:08;2.50;85.70
85036;DHT22;75357;49.780;9.448;2024-03-07T04:10:38;2.60;85.70
85036;DHT22;75357;49.780;9.448;2024-03-07T04:13:07;2.70;85.90
85036;DHT22;75357;49.780;9.448;2024-03-07T04:15:35;2.70;85.30
85036;DHT22;75357;49.780;9.448;2024-03-07T04:18:06;2.80;85.10
85036;DHT22;75357;49.780;9.448;2024-03-07T04:20:36;2.80;85.10
85036;DHT22;75357;49.780;9.448;2024-03-07T04:23:06;2.90;85.00
85036;DHT22;75357;49.780;9.448;2024-03-07T04:25:38;3.00;84.90
85036;DHT22;75357;49.780;9.448;2024-03-07T04:28:06;3.00;84.40
85036;DHT22;75357;49.780;9.448;2024-03-07T04:30:35;3.10;84.00
85036;DHT22;75357;49.780;9.448;2024-03-07T04:33:03;3.10;83.50
85036;DHT22;75357;49.780;9.448;2024-03-07T04:35:33;3.10;83.60
85036;DHT22;75357;49.780;9.448;2024-03-07T04:38:04;3.10;83.80
85036;DHT22;75357;49.780;9.448;2024-03-07T04:40:36;3.10;83.80
85036;DHT22;75357;49.780;9.448;2024-03-07T04:43:06;3.20;83.70
85036;DHT22;75357;49.780;9.448;2024-03-07T04:45:34;3.30;83.70
85036;DHT22;75357;49.780;9.448;2024-03-07T04:48:03;3.40;83.80
85036;DHT22;75357;49.780;9.448;2024-03-07T04:50:32;3.30;83.50
85036;DHT22;75357;49.780;9.448;2024-03-07T04:53:00;3.30;82.90
85036;DHT22;75357;49.780;9.448;2024-03-07T04:55:30;3.30;82.80
85036;DHT22;75357;49.780;9.448;2024-03-07T04:57:59;3.30;82.80
85036;DHT22;75357;49.780;9.448;2024-03-07T05:00:28;3.20;83.10
85036;DHT22;75357;49.780;9.448;2024-03-07T05:02:57;3.10;83.50
85036;DHT22;75357;49.780;9.448;2024-03-07T05:05:26;3.10;83.50
85036;DHT22;75357;49.780;9.448;2024-03-07T05:07:54;3.10;83.30
85036;DHT22;75357;49.780;9.448;2024-03-07T05:10:23;3.10;83.50
85036;DHT22;75357;49.780;9.448;2024-03-07T05:12:56;3.10;83.50
85036;DHT22;75357;49.780;9.448;2024-03-07T05:15:25;3.20;83.60
85036;DHT22;75357;49.780;9.448;2024-03-07T05:17:53;3.30;83.50
85036;DHT22;75357;49.780;9.448;2024-03-07T05:20:23;3.20;82.80
85036;DHT22;75357;49.780;9.448;2024-03-07T05:22:51;3.30;83.10
85036;DHT22;75357;49.780;9.448;2024-03-07T05:25:20;3.30;83.20
85036;DHT22;75357;49.780;9.448;2024-03-07T05:27:49;3.30;83.10
85036;DHT22;75357;49.780;9.448;2024-03-07T05:30:20;3.40;82.90
85036;DHT22;75357;49.780;9.448;2024-03-07T05:32:50;3.50;83.00
85036;DHT22;75357;49.780;9.448;2024-03-07T05:35:19;3.50;82.90
85036;DHT22;75357;49.780;9.448;2024-03-07T05:37:48;3.60;83.00
85036;DHT22;75357;49.780;9.448;2024-03-07T05:40:19;3.60;82.60
85036;DHT22;75357;49.780;9.448;2024-03-07T05:42:49;3.60;82.80
85036;DHT22;75357;49.780;9.448;2024-03-07T05:45:17;3.60;82.90
85036;DHT22;75357;49.780;9.448;2024-03-07T05:47:50;3.70;82.90
85036;DHT22;75357;49.780;9.448;2024-03-07T05:50:18;3.70;82.70
85036;DHT22;75357;49.780;9.448;2024-03-07T05:52:46;3.70;82.60
85036;DHT22;75357;49.780;9.448;2024-03-07T05:55:16;3.80;82.50
85036;DHT22;75357;49.780;9.448;2024-03-07T05:57:46;3.80;82.70
85036;DHT22;75357;49.780;9.448;2024-03-07T06:00:16;3.80;83.10
85036;DHT22;75357;49.780;9.448;2024-03-07T06:02:57;3.90;83.10
85036;DHT22;75357;49.780;9.448;2024-03-07T06:05:25;4.00;82.70
85036;DHT22;75357;49.780;9.448;2024-03-07T06:07:54;3.90;83.10
85036;DHT22;75357;49.780;9.448;2024-03-07T06:10:23;3.80;83.30
85036;DHT22;75357;49.780;9.448;2024-03-07T06:12:52;3.90;83.80
85036;DHT22;75357;49.780;9.448;2024-03-07T06:15:36;3.90;83.70
85036;DHT22;75357;49.780;9.448;2024-03-07T06:18:06;4.00;83.40
85036;DHT22;75357;49.780;9.448;2024-03-07T06:20:38;4.00;83.50
85036;DHT22;75357;49.780;9.448;2024-03-07T06:23:08;4.00;83.40
85036;DHT22;75357;49.780;9.448;2024-03-07T06:25:39;4.00;82.90
85036;DHT22;75357;49.780;9.448;2024-03-07T06:28:14;4.10;83.20
85036;DHT22;75357;49.780;9.448;2024-03-07T06:30:43;4.10;83.20
85036;DHT22;75357;49.780;9.448;2024-03-07T06:33:15;4.10;82.60
85036;DHT22;75357;49.780;9.448;2024-03-07T06:35:49;4.20;81.50
85036;DHT22;75357;49.780;9.448;2024-03-07T06:38:19;4.20;81.30
85036;DHT22;75357;49.780;9.448;2024-03-07T06:40:48;4.30;81.70
85036;DHT22;75357;49.780;9.448;2024-03-07T06:43:17;4.40;81.50
85036;DHT22;75357;49.780;9.448;2024-03-07T06:45:45;4.50;81.30
85036;DHT22;75357;49.780;9.448;2024-03-07T06:48:15;4.50;81.60
85036;DHT22;75357;49.780;9.448;2024-03-07T06:50:44;4.50;81.50
85036;DHT22;75357;49.780;9.448;2024-03-07T06:53:13;4.60;81.70
85036;DHT22;75357;49.780;9.448;2024-03-07T06:55:44;4.60;81.40
85036;DHT22;75357;49.780;9.448;2024-03-07T06:58:13;4.70;81.00
85036;DHT22;75357;49.780;9.448;2024-03-07T07:00:41;4.70;80.90
85036;DHT22;75357;49.780;9.448;2024-03-07T07:03:11;4.70;80.60
85036;DHT22;75357;49.780;9.448;2024-03-07T07:05:42;4.80;80.20
85036;DHT22;75357;49.780;9.448;2024-03-07T07:08:11;4.80;79.20
85036;DHT22;75357;49.780;9.448;2024-03-07T07:10:40;4.80;77.90
85036;DHT22;75357;49.780;9.448;2024-03-07T07:13:09;4.80;78.20
85036;DHT22;75357;49.780;9.448;2024-03-07T07:15:38;4.90;78.80
85036;DHT22;75357;49.780;9.448;2024-03-07T07:18:06;4.90;79.50
85036;DHT22;75357;49.780;9.448;2024-03-07T07:20:35;5.00;78.10
85036;DHT22;75357;49.780;9.448;2024-03-07T07:23:05;5.10;77.70
85036;DHT22;75357;49.780;9.448;2024-03-07T07:25:33;5.10;77.70
85036;DHT22;75357;49.780;9.448;2024-03-07T07:28:03;5.30;77.60
85036;DHT22;75357;49.780;9.448;2024-03-07T07:30:32;5.30;75.60
85036;DHT22;75357;49.780;9.448;2024-03-07T07:33:00;5.30;71.30
85036;DHT22;75357;49.780;9.448;2024-03-07T07:35:29;5.30;68.60
85036;DHT22;75357;49.780;9.448;2024-03-07T07:37:58;5.40;68.20
85036;DHT22;75357;49.780;9.448;2024-03-07T07:40:28;5.40;68.00
85036;DHT22;75357;49.780;9.448;2024-03-07T07:42:58;5.50;66.90
85036;DHT22;75357;49.780;9.448;2024-03-07T07:45:28;5.60;66.00
85036;DHT22;75357;49.780;9.448;2024-03-07T07:47:56;5.60;66.00
85036;DHT22;75357;49.780;9.448;2024-03-07T07:50:26;5.60;67.00
85036;DHT22;75357;49.780;9.448;2024-03-07T07:52:56;5.80;67.30
85036;DHT22;75357;49.780;9.448;2024-03-07T07:55:28;5.80;67.20
85036;DHT22;75357;49.780;9.448;2024-03-07T07:57:59;6.00;66.00
85036;DHT22;75357;49.780;9.448;2024-03-07T08:00:31;6.10;64.50
85036;DHT22;75357;49.780;9.448;2024-03-07T08:03:01;6.10;64.00
85036;DHT22;75357;49.780;9.448;2024-03-07T08:05:30;6.00;63.80
85036;DHT22;75357;49.780;9.448;2024-03-07T08:08:01;6.00;63.90
85036;DHT22;75357;49.780;9.448;2024-03-07T08:10:34;6.10;65.30
85036;DHT22;75357;49.780;9.448;2024-03-07T08:13:03;6.10;64.40
85036;DHT22;75357;49.780;9.448;2024-03-07T08:15:33;6.20;63.90
85036;DHT22;75357;49.780;9.448;2024-03-07T08:18:02;6.20;64.40
85036;DHT22;75357;49.780;9.448;2024-03-07T08:20:38;6.30;65.40
85036;DHT22;75357;49.780;9.448;2024-03-07T08:23:08;6.40;64.60
85036;DHT22;75357;49.780;9.448;2024-03-07T08:25:39;6.50;63.90
85036;DHT22;75357;49.780;9.448;2024-03-07T08:28:08;6.60;63.50
85036;DHT22;75357;49.780;9.448;2024-03-07T08:30:37;6.60;63.30
85036;DHT22;75357;49.780;9.448;2024-03-07T08:33:05;6.70;64.00
85036;DHT22;75357;49.780;9.448;2024-03-07T08:35:34;6.80;63.00
85036;DHT22;75357;49.780;9.448;2024-03-07T08:38:06;6.80;63.10
85036;DHT22;75357;49.780;9.448;2024-03-07T08:40:36;6.50;62.00
85036;DHT22;75357;49.780;9.448;2024-03-07T08:43:07;6.50;62.80
85036;DHT22;75357;49.780;9.448;2024-03-07T08:45:35;6.60;62.60
85036;DHT22;75357;49.780;9.448;2024-03-07T08:48:04;6.50;63.30
85036;DHT22;75357;49.780;9.448;2024-03-07T08:50:35;6.60;62.40
85036;DHT22;75357;49.780;9.448;2024-03-07T08:53:05;6.70;62.40
85036;DHT22;75357;49.780;9.448;2024-03-07T08:55:34;6.70;62.70
85036;DHT22;75357;49.780;9.448;2024-03-07T08:58:04;6.80;63.10
85036;DHT22;75357;49.780;9.448;2024-03-07T09:00:36;6.80;62.30
85036;DHT22;75357;49.780;9.448;2024-03-07T09:03:06;6.90;62.10
85036;DHT22;75357;49.780;9.448;2024-03-07T09:05:39;6.90;62.50
85036;DHT22;75357;49.780;9.448;2024-03-07T09:08:08;6.90;62.10
85036;DHT22;75357;49.780;9.448;2024-03-07T09:10:36;7.00;62.60
85036;DHT22;75357;49.780;9.448;2024-03-07T09:13:08;6.90;62.30
85036;DHT22;75357;49.780;9.448;2024-03-07T09:15:39;7.00;63.60
85036;DHT22;75357;49.780;9.448;2024-03-07T09:18:10;7.10;63.50
85036;DHT22;75357;49.780;9.448;2024-03-07T09:20:39;7.20;63.00
85036;DHT22;75357;49.780;9.448;2024-03-07T09:23:07;7.40;61.50
85036;DHT22;75357;49.780;9.448;2024-03-07T09:25:35;7.50;61.50
85036;DHT22;75357;49.780;9.448;2024-03-07T09:28:04;7.70;61.50
85036;DHT22;75357;49.780;9.448;2024-03-07T09:30:33;7.60;60.80
85036;DHT22;75357;49.780;9.448;2024-03-07T09:33:07;7.50;61.20
85036;DHT22;75357;49.780;9.448;2024-03-07T09:35:39;7.30;61.90
85036;DHT22;75357;49.780;9.448;2024-03-07T09:38:07;7.40;61.70
85036;DHT22;75357;49.780;9.448;2024-03-07T09:40:36;7.40;61.70
85036;DHT22;75357;49.780;9.448;2024-03-07T09:43:06;7.60;61.70
85036;DHT22;75357;49.780;9.448;2024-03-07T09:45:38;7.80;61.30
85036;DHT22;75357;49.780;9.448;2024-03-07T09:48:14;7.90;60.50
85036;DHT22;75357;49.780;9.448;2024-03-07T09:50:45;7.70;61.00
85036;DHT22;75357;49.780;9.448;2024-03-07T09:53:15;7.70;61.70
85036;DHT22;75357;49.780;9.448;2024-03-07T09:55:45;7.70;61.60
85036;DHT22;75357;49.780;9.448;2024-03-07T09:58:15;7.60;61.90
85036;DHT22;75357;49.780;9.448;2024-03-07T10:00:47;7.40;62.60
85036;DHT22;75357;49.780;9.448;2024-03-07T10:03:20;7.40;62.80
85036;DHT22;75357;49.780;9.448;2024-03-07T10:05:49;7.60;62.80
85036;DHT22;75357;49.780;9.448;2024-03-07T10:08:22;7.70;62.60
85036;DHT22;75357;49.780;9.448;2024-03-07T10:10:52;7.90;63.00
85036;DHT22;75357;49.780;9.448;2024-03-07T10:13:22;8.20;61.50
85036;DHT22;75357;49.780;9.448;2024-03-07T10:15:52;8.40;61.40
85036;DHT22;75357;49.780;9.448;2024-03-07T10:18:24;8.10;61.30
85036;DHT22;75357;49.780;9.448;2024-03-07T10:20:54;7.80;62.60
85036;DHT22;75357;49.780;9.448;2024-03-07T10:23:22;8.00;62.80
85036;DHT22;75357;49.780;9.448;2024-03-07T10:25:54;8.20;62.10
85036;DHT22;75357;49.780;9.448;2024-03-07T10:28:23;8.20;62.60
85036;DHT22;75357;49.780;9.448;2024-03-07T10:30:51;8.20;62.30
85036;DHT22;75357;49.780;9.448;2024-03-07T10:33:27;8.40;62.10
85036;DHT22;75357;49.780;9.448;2024-03-07T10:36:00;8.70;61.90
85036;DHT22;75357;49.780;9.448;2024-03-07T10:38:29;8.50;61.00
85036;DHT22;75357;49.780;9.448;2024-03-07T10:40:58;7.90;62.50
85036;DHT22;75357;49.780;9.448;2024-03-07T10:43:29;7.90;63.50
85036;DHT22;75357;49.780;9.448;2024-03-07T10:46:00;7.60;63.90
85036;DHT22;75357;49.780;9.448;2024-03-07T10:48:38;7.60;64.60
85036;DHT22;75357;49.780;9.448;2024-03-07T10:51:13;7.80;64.60
85036;DHT22;75357;49.780;9.448;2024-03-07T10:53:52;7.80;64.30
85036;DHT22;75357;49.780;9.448;2024-03-07T10:56:33;7.80;64.50
85036;DHT22;75357;49.780;9.448;2024-03-07T10:59:16;8.00;64.40
85036;DHT22;75357;49.780;9.448;2024-03-07T11:01:49;8.20;63.40
85036;DHT22;75357;49.780;9.448;2024-03-07T11:04:23;8.20;63.10
85036;DHT22;75357;49.780;9.448;2024-03-07T11:06:53;8.30;63.30
85036;DHT22;75357;49.780;9.448;2024-03-07T11:09:23;8.40;63.10
85036;DHT22;75357;49.780;9.448;2024-03-07T11:11:56;8.80;63.30
85036;DHT22;75357;49.780;9.448;2024-03-07T11:14:25;8.90;62.90
85036;DHT22;75357;49.780;9.448;2024-03-07T11:16:53;9.20;62.70
85036;DHT22;75357;49.780;9.448;2024-03-07T11:19:31;9.20;61.50
85036;DHT22;75357;49.780;9.448;2024-03-07T11:22:04;9.20;61.60
85036;DHT22;75357;49.780;9.448;2024-03-07T11:24:43;9.20;61.10
85036;DHT22;75357;49.780;9.448;2024-03-07T11:27:13;9.20;61.60
85036;DHT22;75357;49.780;9.448;2024-03-07T11:29:43;9.20;61.60
85036;DHT22;75357;49.780;9.448;2024-03-07T11:32:15;9.40;61.60
85036;DHT22;75357;49.780;9.448;2024-03-07T11:34:46;9.30;60.40
85036;DHT22;75357;49.780;9.448;2024-03-07T11:37:19;9.30;60.30
85036;DHT22;75357;49.780;9.448;2024-03-07T11:39:50;9.50;60.10
85036;DHT22;75357;49.780;9.448;2024-03-07T11:42:24;9.60;60.70
85036;DHT22;75357;49.780;9.448;2024-03-07T11:44:59;9.60;59.50
85036;DHT22;75357;49.780;9.448;2024-03-07T11:47:35;9.70;60.80
85036;DHT22;75357;49.780;9.448;2024-03-07T11:50:07;9.80;59.40
85036;DHT22;75357;49.780;9.448;2024-03-07T11:52:39;9.80;59.80
85036;DHT22;75357;49.780;9.448;2024-03-07T11:55:09;9.70;60.40
85036;DHT22;75357;49.780;9.448;2024-03-07T11:57:38;9.60;60.40
85036;DHT22;75357;49.780;9.448;2024-03-07T12:00:11;9.60;61.60
85036;DHT22;75357;49.780;9.448;2024-03-07T12:02:42;9.70;60.80
85036;DHT22;75357;49.780;9.448;2024-03-07T12:05:12;9.60;59.80
85036;DHT22;75357;49.780;9.448;2024-03-07T12:07:43;9.50;60.80
85036;DHT22;75357;49.780;9.448;2024-03-07T12:10:12;9.70;60.70
85036;DHT22;75357;49.780;9.448;2024-03-07T12:12:41;9.90;59.60
85036;DHT22;75357;49.780;9.448;2024-03-07T12:15:10;9.70;59.20
85036;DHT22;75357;49.780;9.448;2024-03-07T12:17:47;9.50;60.30
85036;DHT22;75357;49.780;9.448;2024-03-07T12:20:19;9.30;60.50
85036;DHT22;75357;49.780;9.448;2024-03-07T12:22:59;9.60;60.70
85036;DHT22;75357;49.780;9.448;2024-03-07T12:25:30;9.70;60.80
85036;DHT22;75357;49.780;9.448;2024-03-07T12:28:06;9.90;60.10
85036;DHT22;75357;49.780;9.448;2024-03-07T12:30:48;9.70;59.60
85036;DHT22;75357;49.780;9.448;2024-03-07T12:33:21;9.80;59.70
85036;DHT22;75357;49.780;9.448;2024-03-07T12:35:54;10.00;59.70
85036;DHT22;75357;49.780;9.448;2024-03-07T12:38:29;10.30;59.60
85036;DHT22;75357;49.780;9.448;2024-03-07T12:41:04;10.30;57.90
85036;DHT22;75357;49.780;9.448;2024-03-07T12:43:34;10.20;57.40
85036;DHT22;75357;49.780;9.448;2024-03-07T12:46:05;10.30;56.00
85036;DHT22;75357;49.780;9.448;2024-03-07T12:48:35;10.30;56.00
85036;DHT22;75357;49.780;9.448;2024-03-07T12:51:08;10.20;54.90
85036;DHT22;75357;49.780;9.448;2024-03-07T12:53:37;9.80;56.80
85036;DHT22;75357;49.780;9.448;2024-03-07T12:56:05;9.70;57.50
85036;DHT22;75357;49.780;9.448;2024-03-07T12:58:36;9.60;57.60
85036;DHT22;75357;49.780;9.448;2024-03-07T13:01:04;9.80;58.30
85036;DHT22;75357;49.780;9.448;2024-03-07T13:03:32;9.80;57.50
85036;DHT22;75357;49.780;9.448;2024-03-07T13:06:02;9.90;58.70
85036;DHT22;75357;49.780;9.448;2024-03-07T13:08:33;10.00;57.00
85036;DHT22;75357;49.780;9.448;2024-03-07T13:11:02;10.10;56.40
85036;DHT22;75357;49.780;9.448;2024-03-07T13:13:32;10.00;56.20
85036;DHT22;75357;49.780;9.448;2024-03-07T13:16:01;9.90;56.60
85036;DHT22;75357;49.780;9.448;2024-03-07T13:18:29;9.80;57.90
85036;DHT22;75357;49.780;9.448;2024-03-07T13:21:01;9.80;57.10
85036;DHT22;75357;49.780;9.448;2024-03-07T13:23:33;9.90;56.60
85036;DHT22;75357;49.780;9.448;2024-03-07T13:26:03;9.80;56.90
85036;DHT22;75357;49.780;9.448;2024-03-07T13:28:36;9.90;57.30
85036;DHT22;75357;49.780;9.448;2024-03-07T13:31:04;9.80;57.20
85036;DHT22;75357;49.780;9.448;2024-03-07T13:33:33;9.80;57.90
85036;DHT22;75357;49.780;9.448;2024-03-07T13:36:04;9.90;57.20
85036;DHT22;75357;49.780;9.448;2024-03-07T13:38:35;10.10;56.00
85036;DHT22;75357;49.780;9.448;2024-03-07T13:41:05;10.20;55.30
85036;DHT22;75357;49.780;9.448;2024-03-07T13:43:33;10.30;54.90
85036;DHT22;75357;49.780;9.448;2024-03-07T13:46:02;10.20;54.90
85036;DHT22;75357;49.780;9.448;2024-03-07T13:48:30;10.20;55.00
85036;DHT22;75357;49.780;9.448;2024-03-07T13:51:04;10.20;56.20
85036;DHT22;75357;49.780;9.448;2024-03-07T13:53:36;10.20;54.60
85036;DHT22;75357;49.780;9.448;2024-03-07T13:56:33;10.20;55.00
85036;DHT22;75357;49.780;9.448;2024-03-07T14:02:51;9.90;56.10
85036;DHT22;75357;49.780;9.448;2024-03-07T14:05:38;9.90;56.60
85036;DHT22;75357;49.780;9.448;2024-03-07T14:08:40;10.00;55.20
85036;DHT22;75357;49.780;9.448;2024-03-07T14:11:54;9.90;55.80
85036;DHT22;75357;49.780;9.448;2024-03-07T14:14:41;10.00;54.90
85036;DHT22;75357;49.780;9.448;2024-03-07T14:20:47;10.10;54.90
85036;DHT22;75357;49.780;9.448;2024-03-07T14:23:33;9.90;57.20
85036;DHT22;75357;49.780;9.448;2024-03-07T14:26:36;9.90;56.40
85036;DHT22;75357;49.780;9.448;2024-03-07T14:29:19;9.80;56.00
85036;DHT22;75357;49.780;9.448;2024-03-07T14:31:51;9.60;56.40
85036;DHT22;75357;49.780;9.448;2024-03-07T14:34:29;9.50;56.30
85036;DHT22;75357;49.780;9.448;2024-03-07T14:37:09;9.50;56.10
85036;DHT22;75357;49.780;9.448;2024-03-07T14:39:40;9.50;56.30
85036;DHT22;75357;49.780;9.448;2024-03-07T14:42:11;9.50;57.00
85036;DHT22;75357;49.780;9.448;2024-03-07T14:44:43;9.40;56.10
85036;DHT22;75357;49.780;9.448;2024-03-07T14:47:19;9.30;56.70
85036;DHT22;75357;49.780;9.448;2024-03-07T14:49:48;9.40;56.60
85036;DHT22;75357;49.780;9.448;2024-03-07T14:52:17;9.50;57.10
85036;DHT22;75357;49.780;9.448;2024-03-07T14:54:45;9.60;55.70
85036;DHT22;75357;49.780;9.448;2024-03-07T14:57:16;9.50;56.70
85036;DHT22;75357;49.780;9.448;2024-03-07T14:59:48;9.60;56.10
85036;DHT22;75357;49.780;9.448;2024-03-07T15:02:18;9.60;56.30
85036;DHT22;75357;49.780;9.448;2024-03-07T15:04:48;9.60;55.80
85036;DHT22;75357;49.780;9.448;2024-03-07T15:07:16;9.40;56.20
85036;DHT22;75357;49.780;9.448;2024-03-07T15:09:44;9.40;56.00
85036;DHT22;75357;49.780;9.448;2024-03-07T15:12:13;9.40;55.70
85036;DHT22;75357;49.780;9.448;2024-03-07T15:14:43;9.30;55.60
85036;DHT22;75357;49.780;9.448;2024-03-07T15:17:14;9.20;55.60
85036;DHT22;75357;49.780;9.448;2024-03-07T15:19:42;9.20;55.90
85036;DHT22;75357;49.780;9.448;2024-03-07T15:22:10;9.30;55.50
85036;DHT22;75357;49.780;9.448;2024-03-07T15:24:40;9.20;55.50
85036;DHT22;75357;49.780;9.448;2024-03-07T15:27:08;9.20;55.60
85036;DHT22;75357;49.780;9.448;2024-03-07T15:29:39;9.20;55.60
85036;DHT22;75357;49.780;9.448;2024-03-07T15:32:09;9.20;55.30
85036;DHT22;75357;49.780;9.448;2024-03-07T15:34:42;9.20;55.10
85036;DHT22;75357;49.780;9.448;2024-03-07T15:37:10;9.10;55.70
85036;DHT22;75357;49.780;9.448;2024-03-07T15:39:41;9.10;55.40
85036;DHT22;75357;49.780;9.448;2024-03-07T15:42:15;9.10;55.80
85036;DHT22;75357;49.780;9.448;2024-03-07T15:44:43;9.00;55.90
85036;DHT22;75357;49.780;9.448;2024-03-07T15:47:14;9.00;56.30
85036;DHT22;75357;49.780;9.448;2024-03-07T15:49:43;9.00;56.70
85036;DHT22;75357;49.780;9.448;2024-03-07T15:52:11;9.00;56.70
85036;DHT22;75357;49.780;9.448;2024-03-07T15:54:42;9.00;56.40
85036;DHT22;75357;49.780;9.448;2024-03-07T15:57:11;8.90;56.50
85036;DHT22;75357;49.780;9.448;2024-03-07T15:59:43;8.90;56.70
85036;DHT22;75357;49.780;9.448;2024-03-07T16:02:11;8.90;56.70
85036;DHT22;75357;49.780;9.448;2024-03-07T16:04:43;8.80;55.90
85036;DHT22;75357;49.780;9.448;2024-03-07T16:07:11;8.90;55.50
85036;DHT22;75357;49.780;9.448;2024-03-07T16:09:39;8.80;56.20
85036;DHT22;75357;49.780;9.448;2024-03-07T16:12:08;8.80;56.40
85036;DHT22;75357;49.780;9.448;2024-03-07T16:14:37;8.80;56.00